Archives de catégorie : Uncategorized

¡ Hasta la victoria siempre !

Notre objectif: nous rendre à Burgos pour ex-filtrer Patricia perdue depuis 10 jours dans la province de Castille et Leon, au Nord de l’Espagne. La pauvre bougresse, après avoir franchi le col de Roncevaux à la frontière pyrénéenne, et parcouru … Lire la suite

Publié dans Uncategorized | 1 commentaire

Carcassonne: mon premier « EuroGa fly-in »

Il y a maintenant deux ans, je suis tombé par le hasard de mes navigations, sur le site anglophone d’un pilote basé à Shoreham, Sussex, au Sud du Royaume-Uni, qui sans artifice inutile, partageait par ce moyen, les récits de … Lire la suite

Publié dans Uncategorized | Laisser un commentaire

10 ans: intervention nécessaire sur le circuit d’essence

Fabriqué en 2006 à Wichita, plus grande ville de l’état du Kansas, et siège de six grands constructeurs d’avions (d’où son surnom d’Air Capital), le F-HIND fête cette année ses premiers 10 ans. L’entretien d’un aéronef étant soumis à des … Lire la suite

Publié dans Uncategorized | Laisser un commentaire

Ballade d’automne

« Viens Maman, je t’invite à manger à Barcelonnette, il y a un super resto sur  l’aérodrome!». Belle journée de septembre, nous voilà partis en direction d’Aix-Les-Milles, décollage prévu vers 11h, avec une table réservée pour l’heure suivante, au Planeur, le … Lire la suite

Publié dans Uncategorized | Laisser un commentaire

Impression of a pilot

Flight is freedom in its purest form, To dance with the clouds which follow a storm; To roll and glide, to wheel and spin, To feel the joy that swells within; To leave the earth with its troubles and fly, … Lire la suite

Publié dans Uncategorized | Laisser un commentaire

Une bulle de sens

Par une journée grisonnante de début d’automne, c’est vers un ciel voilé que nous avons pointé le nez, en direction d’un proche aérodrome Vauclusien, où nous voulions casser la croûte. Aujourd’hui pour la première fois depuis longtemps, j’allais monter dans … Lire la suite

Publié dans Uncategorized | Laisser un commentaire

Stormscope vs Radar Satellite

Pour info, le METAR à LFML indiquait: 131230Z 13008KT 9999 FEW040 BKN120 27/21 Q1015 TEMPO SHRA= 131330Z 30007KT 9999 SHRA FEW019 BKN060 BKN100 26/23 Q1014 TEMPO SHRA

Publié dans Uncategorized | Laisser un commentaire

Béziers: l’esprit de résistance

Grisaille du samedi matin. On voudrait être ailleurs. On voudrait goûter à autre chose. S’extirper de la routine, de la semaine de travail, de chez soi. LFML (MARSEILLE) 010730Z 00000KT 9999 BKN033 BKN066 21/19 Q1012 NOSIG Un départ en IFR … Lire la suite

Publié dans Uncategorized | Laisser un commentaire

Sur les traces de Napoléon

Par Alain E. Quand FX m’a proposé de rejoindre l’ile d’Elbe, j’ai été conquis par l’idée, en pensant que j’allais suivre une route célèbre. Le RDV est donné ce dimanche à 8h30. Un plan de vol est déposé avec une route au … Lire la suite

Publié dans Uncategorized | Laisser un commentaire

L’infrarouge ajouté à la météo satellite (ADLConnect)

Le boitier ADL120 équipant le F-HIND permet de télécharger par voie satellite, des informations météorologiques durant le vol. L’application pour iPhone/iPad ADLConnect servant d’interface, a bénéficié d’une mise à jour majeure, permettant le téléchargement de l’imagerie infrarouge (animée), en plus … Lire la suite

Publié dans Uncategorized | Laisser un commentaire